Time;durP1;ratioP1;P1;durP2;ratioP2;P2;SDS_P1;SDS_P2;PMS_P1;PMS_P2;Temp;Humidity;BMP_temperature;BMP_pressure;BME280_temperature;BME280_humidity;BME280_pressure;Samples;Min_cycle;Max_cycle;Signal;HPM_P1;HPM_P2
2023/07/30 00:02:18;;;;;;;4.22;2.47;;;24.70;96.70;;;;;;5063368;28;20082;-79
2023/07/30 00:04:46;;;;;;;3.33;2.13;;;24.70;96.70;;;;;;5064380;28;20098;-79
2023/07/30 00:07:14;;;;;;;4.30;2.33;;;24.60;96.70;;;;;;5063956;28;20055;-79
2023/07/30 00:09:42;;;;;;;4.85;2.20;;;24.60;96.70;;;;;;5062291;28;20095;-79
2023/07/30 00:12:11;;;;;;;4.10;2.00;;;24.60;96.70;;;;;;5062072;28;20341;-79
2023/07/30 00:14:39;;;;;;;5.82;2.10;;;24.50;96.70;;;;;;5062066;28;20040;-79
2023/07/30 00:17:07;;;;;;;3.55;2.15;;;24.50;96.70;;;;;;5064195;28;20128;-79
2023/07/30 00:19:35;;;;;;;6.93;2.65;;;24.50;96.70;;;;;;5063657;28;20036;-78
2023/07/30 00:22:03;;;;;;;4.28;2.08;;;24.50;96.70;;;;;;5062225;28;20044;-80
2023/07/30 00:24:32;;;;;;;5.28;2.00;;;24.50;96.70;;;;;;5063628;28;20082;-79
2023/07/30 00:27:00;;;;;;;2.75;2.00;;;24.50;96.70;;;;;;5062682;28;20131;-79
2023/07/30 00:29:29;;;;;;;2.40;1.70;;;24.60;96.70;;;;;;5063473;28;20116;-79
2023/07/30 00:31:57;;;;;;;4.38;2.10;;;24.70;96.70;;;;;;5063332;28;20040;-79
2023/07/30 00:34:25;;;;;;;2.72;1.98;;;24.70;96.70;;;;;;5061139;28;20040;-79
2023/07/30 00:36:52;;;;;;;4.53;2.38;;;24.70;96.70;;;;;;5063718;28;20080;-80
2023/07/30 00:39:20;;;;;;;3.47;1.92;;;24.80;96.70;;;;;;5046241;28;20106;-79
2023/07/30 00:41:49;;;;;;;3.30;1.90;;;24.70;96.70;;;;;;5062449;28;20048;-79
2023/07/30 00:44:16;;;;;;;3.45;2.22;;;24.70;96.70;;;;;;5055736;28;20048;-78
2023/07/30 00:46:46;;;;;;;4.45;2.33;;;24.70;96.70;;;;;;5077926;28;20056;-80
2023/07/30 00:49:14;;;;;;;2.90;1.88;;;24.60;96.70;;;;;;5062446;28;20040;-78
2023/07/30 00:51:43;;;;;;;3.78;2.22;;;24.50;96.70;;;;;;5062398;28;20049;-78
2023/07/30 00:54:12;;;;;;;3.55;1.85;;;24.40;96.70;;;;;;5062304;28;20040;-79
2023/07/30 00:56:49;;;;;;;1.92;1.63;;;24.40;96.70;;;;;;5066076;28;20079;-78
2023/07/30 00:59:17;;;;;;;3.55;1.73;;;24.50;96.70;;;;;;5063449;28;20049;-79
2023/07/30 01:01:47;;;;;;;2.75;1.60;;;24.50;96.70;;;;;;5070750;28;20049;-79
2023/07/30 01:04:15;;;;;;;4.70;1.95;;;24.70;96.70;;;;;;5044536;28;20040;-78
2023/07/30 01:06:43;;;;;;;3.30;2.10;;;24.70;96.70;;;;;;5063909;28;20051;-78
2023/07/30 01:09:11;;;;;;;3.05;2.10;;;24.70;96.70;;;;;;5061775;28;20102;-79
2023/07/30 01:11:40;;;;;;;3.10;1.88;;;24.70;96.70;;;;;;5062341;28;20522;-79
2023/07/30 01:14:10;;;;;;;4.03;2.10;;;24.80;96.70;;;;;;5061955;28;20063;-78
2023/07/30 01:16:38;;;;;;;3.10;1.63;;;24.90;96.70;;;;;;5062025;28;20048;-79
2023/07/30 01:19:08;;;;;;;3.03;1.40;;;25.00;96.70;;;;;;5061509;28;20098;-78
2023/07/30 01:21:37;;;;;;;5.47;1.52;;;25.20;96.70;;;;;;5064359;28;20098;-78
2023/07/30 01:24:05;;;;;;;2.95;1.80;;;25.30;96.70;;;;;;5062413;28;20076;-78
2023/07/30 01:26:40;;;;;;;2.95;1.73;;;25.40;96.70;;;;;;5056756;28;20052;-79
2023/07/30 01:29:13;;;;;;;2.15;1.40;;;25.60;96.70;;;;;;5062340;28;20115;-79
2023/07/30 01:31:43;;;;;;;3.42;1.80;;;25.70;96.70;;;;;;5062930;28;20044;-78
2023/07/30 01:34:12;;;;;;;4.53;2.15;;;25.70;96.70;;;;;;5065127;28;20045;-78
2023/07/30 01:36:42;;;;;;;4.60;1.58;;;25.80;96.70;;;;;;5046076;28;20064;-78
2023/07/30 01:39:11;;;;;;;2.63;1.45;;;25.80;96.70;;;;;;5066142;28;20135;-78
2023/07/30 01:41:39;;;;;;;2.65;1.65;;;25.90;96.70;;;;;;5066966;28;20043;-78
2023/07/30 01:44:07;;;;;;;2.22;1.83;;;25.80;96.70;;;;;;5064619;28;20055;-79
2023/07/30 01:46:36;;;;;;;3.45;1.55;;;25.80;96.70;;;;;;5067447;28;20050;-78
2023/07/30 01:49:03;;;;;;;2.67;1.83;;;25.70;96.70;;;;;;5065714;28;20517;-79
2023/07/30 01:51:31;;;;;;;3.30;1.77;;;25.70;96.70;;;;;;5066871;28;20056;-79
2023/07/30 01:54:01;;;;;;;3.58;1.45;;;25.70;96.70;;;;;;5064907;28;20653;-78
2023/07/30 01:56:29;;;;;;;3.33;1.60;;;25.50;96.70;;;;;;5073518;28;20052;-79
2023/07/30 01:58:57;;;;;;;2.45;1.80;;;25.40;96.70;;;;;;5057385;28;20045;-78
2023/07/30 02:01:25;;;;;;;2.95;1.67;;;25.50;96.70;;;;;;5048369;28;20528;-78
2023/07/30 02:03:53;;;;;;;4.35;1.95;;;25.50;96.70;;;;;;5066431;28;20048;-80
2023/07/30 02:06:21;;;;;;;3.35;1.65;;;25.60;96.70;;;;;;5064940;28;20080;-79
2023/07/30 02:08:49;;;;;;;3.08;1.67;;;25.60;96.70;;;;;;5064264;28;20121;-79
2023/07/30 02:11:18;;;;;;;3.05;1.80;;;25.60;96.70;;;;;;5067393;28;20110;-78
2023/07/30 02:13:46;;;;;;;3.95;2.10;;;25.60;96.70;;;;;;5064337;28;20048;-79
2023/07/30 02:16:14;;;;;;;4.15;2.00;;;25.50;96.70;;;;;;5070331;28;20221;-78
2023/07/30 02:18:42;;;;;;;4.55;1.98;;;25.40;96.70;;;;;;5066018;28;20062;-77
2023/07/30 02:21:10;;;;;;;3.88;1.58;;;25.30;96.70;;;;;;5064917;28;20048;-78
2023/07/30 02:23:38;;;;;;;4.10;2.33;;;25.30;96.70;;;;;;5081743;28;20398;-79
2023/07/30 02:26:06;;;;;;;3.67;2.20;;;25.20;96.70;;;;;;5066655;28;20080;-78
2023/07/30 02:28:35;;;;;;;3.63;2.47;;;25.20;96.70;;;;;;5065735;28;20032;-78
2023/07/30 02:31:03;;;;;;;6.13;2.30;;;25.20;96.70;;;;;;5065018;28;20109;-77
2023/07/30 02:33:37;;;;;;;3.53;1.85;;;25.20;96.70;;;;;;5015822;28;20498;-78
2023/07/30 02:36:07;;;;;;;4.07;2.10;;;25.00;96.70;;;;;;5081673;28;20052;-79
2023/07/30 02:38:37;;;;;;;3.25;2.25;;;25.00;96.70;;;;;;5064065;28;20561;-78
2023/07/30 02:41:06;;;;;;;2.70;2.13;;;25.00;96.70;;;;;;5064815;28;20060;-78
2023/07/30 02:43:38;;;;;;;5.82;2.70;;;24.90;96.70;;;;;;5065193;28;20054;-77
2023/07/30 02:46:07;;;;;;;4.20;2.08;;;24.80;96.70;;;;;;5065015;28;20098;-79
2023/07/30 02:48:37;;;;;;;4.38;2.75;;;24.80;96.70;;;;;;5064444;28;20052;-79
2023/07/30 02:51:06;;;;;;;4.38;2.10;;;24.70;96.70;;;;;;5065324;28;20502;-79
2023/07/30 02:53:36;;;;;;;2.58;2.00;;;24.80;96.70;;;;;;5064668;28;20127;-77
2023/07/30 02:56:06;;;;;;;3.45;2.20;;;24.70;96.70;;;;;;5066314;28;20048;-78
2023/07/30 02:58:37;;;;;;;5.82;2.42;;;24.60;96.70;;;;;;5047306;28;20381;-78
2023/07/30 03:01:07;;;;;;;4.60;2.28;;;24.50;96.70;;;;;;5063708;28;20129;-78
2023/07/30 03:03:38;;;;;;;7.05;2.30;;;24.50;96.70;;;;;;5065680;28;20067;-78
2023/07/30 03:06:08;;;;;;;3.88;2.17;;;24.50;96.70;;;;;;5063769;28;20049;-78
2023/07/30 03:08:38;;;;;;;4.43;2.35;;;24.60;96.70;;;;;;5064593;28;20098;-78
2023/07/30 03:11:07;;;;;;;4.63;2.00;;;24.70;96.70;;;;;;5063951;28;20070;-78
2023/07/30 03:13:39;;;;;;;4.82;2.78;;;24.70;96.70;;;;;;5063541;28;20143;-78
2023/07/30 03:16:09;;;;;;;3.90;2.47;;;24.70;96.70;;;;;;5060116;28;20045;-78
2023/07/30 03:18:41;;;;;;;7.38;2.60;;;24.60;96.70;;;;;;5065982;28;20046;-78
2023/07/30 03:21:10;;;;;;;4.28;2.20;;;24.50;96.70;;;;;;5065544;28;20044;-78
2023/07/30 03:23:42;;;;;;;5.35;2.53;;;24.60;96.70;;;;;;5064680;28;20040;-78
2023/07/30 03:26:12;;;;;;;4.45;2.28;;;24.70;96.70;;;;;;5064229;28;20067;-78
2023/07/30 03:28:43;;;;;;;4.68;2.22;;;24.70;96.70;;;;;;5064546;28;20048;-77
2023/07/30 03:31:13;;;;;;;3.38;2.28;;;24.70;96.70;;;;;;5064449;28;20102;-77
2023/07/30 03:33:43;;;;;;;4.13;2.22;;;24.70;96.70;;;;;;5065173;28;20037;-78
2023/07/30 03:36:15;;;;;;;4.22;2.00;;;24.70;96.70;;;;;;5064900;28;20044;-77
2023/07/30 03:38:44;;;;;;;4.47;2.33;;;24.60;96.70;;;;;;5063833;28;20685;-78
2023/07/30 03:41:12;;;;;;;4.53;2.42;;;24.60;96.70;;;;;;5065624;28;20044;-78
2023/07/30 03:43:42;;;;;;;5.00;2.17;;;24.60;96.70;;;;;;5062578;28;20494;-78
2023/07/30 03:46:10;;;;;;;4.50;2.22;;;24.60;96.70;;;;;;5063531;28;20705;-78
2023/07/30 03:48:38;;;;;;;2.50;2.10;;;24.70;96.70;;;;;;5063091;28;20048;-78
2023/07/30 03:51:10;;;;;;;4.15;2.20;;;24.70;96.70;;;;;;5063074;28;20595;-79
2023/07/30 03:53:42;;;;;;;4.65;2.22;;;24.70;96.70;;;;;;5063678;28;20106;-74
2023/07/30 03:56:12;;;;;;;3.05;1.98;;;24.70;96.70;;;;;;5062066;28;20773;-74
2023/07/30 03:58:44;;;;;;;5.03;2.20;;;24.60;96.70;;;;;;5062076;28;20127;-74
2023/07/30 04:01:13;;;;;;;3.05;1.65;;;24.50;96.70;;;;;;5053710;28;20110;-76
2023/07/30 04:03:42;;;;;;;2.35;1.50;;;24.50;96.70;;;;;;5046271;28;20052;-74
2023/07/30 04:06:11;;;;;;;2.45;1.40;;;24.50;96.70;;;;;;5062473;28;20052;-75
2023/07/30 04:08:40;;;;;;;2.28;1.70;;;24.50;96.70;;;;;;5062620;28;20045;-75
2023/07/30 04:11:10;;;;;;;3.35;2.13;;;24.60;96.70;;;;;;5064671;28;20131;-75
2023/07/30 04:13:40;;;;;;;4.20;1.98;;;24.60;96.70;;;;;;5079301;28;20041;-75
2023/07/30 04:16:11;;;;;;;3.85;1.63;;;24.50;96.70;;;;;;5056764;28;20052;-75
2023/07/30 04:18:40;;;;;;;2.88;1.90;;;24.40;96.70;;;;;;5062857;28;20510;-75
2023/07/30 04:21:10;;;;;;;2.55;1.50;;;24.40;96.70;;;;;;5064515;28;20132;-75
2023/07/30 04:23:39;;;;;;;3.35;2.00;;;24.50;96.70;;;;;;5061824;28;20125;-75
2023/07/30 04:26:08;;;;;;;2.70;1.60;;;24.50;96.70;;;;;;5046755;28;20056;-75
2023/07/30 04:28:37;;;;;;;3.53;1.73;;;24.60;96.70;;;;;;5045490;28;20074;-75
2023/07/30 04:31:06;;;;;;;2.95;1.67;;;24.60;96.70;;;;;;5064501;28;20754;-74
2023/07/30 04:33:37;;;;;;;4.38;1.95;;;24.60;96.70;;;;;;5062004;28;20147;-75
2023/07/30 04:36:07;;;;;;;2.58;1.63;;;24.50;96.70;;;;;;5061440;28;20048;-74
2023/07/30 04:38:37;;;;;;;2.60;1.75;;;24.40;96.70;;;;;;5055875;28;20490;-74
2023/07/30 04:41:06;;;;;;;2.92;1.85;;;24.40;96.70;;;;;;5046335;28;20040;-74
2023/07/30 04:43:41;;;;;;;3.55;2.15;;;24.30;96.70;;;;;;5045835;28;20051;-74
2023/07/30 04:46:10;;;;;;;4.35;1.90;;;24.30;96.70;;;;;;5077277;28;20044;-74
2023/07/30 04:48:41;;;;;;;3.08;1.88;;;24.40;96.70;;;;;;5061746;28;20819;-74
2023/07/30 04:51:13;;;;;;;4.32;1.73;;;24.40;96.70;;;;;;5061660;28;20058;-76
2023/07/30 04:53:42;;;;;;;4.45;1.98;;;24.40;96.70;;;;;;5062520;28;20045;-76
2023/07/30 04:56:11;;;;;;;5.30;1.70;;;24.40;96.70;;;;;;5062627;28;20114;-75
2023/07/30 04:58:41;;;;;;;3.83;2.40;;;24.40;96.70;;;;;;5061655;28;20141;-75
2023/07/30 05:01:10;;;;;;;3.38;2.10;;;24.40;96.70;;;;;;5064159;28;20039;-75
2023/07/30 05:03:41;;;;;;;5.15;1.77;;;24.30;96.70;;;;;;5061337;28;20067;-75
2023/07/30 05:06:10;;;;;;;5.22;1.50;;;24.20;96.70;;;;;;5062132;28;20076;-75
2023/07/30 05:08:39;;;;;;;3.53;1.92;;;24.30;96.70;;;;;;5066033;28;20036;-74
2023/07/30 05:11:09;;;;;;;6.22;2.17;;;24.30;96.70;;;;;;5065888;28;20527;-74
2023/07/30 05:13:38;;;;;;;3.70;2.00;;;24.40;96.70;;;;;;5064348;28;20055;-75
2023/07/30 05:16:07;;;;;;;3.35;2.20;;;24.30;96.70;;;;;;5065756;28;20041;-74
2023/07/30 05:18:36;;;;;;;4.32;1.98;;;24.30;96.70;;;;;;5066270;28;20043;-75
2023/07/30 05:21:06;;;;;;;3.67;2.17;;;24.40;96.70;;;;;;5065744;28;20176;-75
2023/07/30 05:23:36;;;;;;;2.75;1.90;;;24.40;96.70;;;;;;5067292;28;20082;-75
2023/07/30 05:26:05;;;;;;;5.75;2.55;;;24.40;96.70;;;;;;5067900;28;20110;-75
2023/07/30 05:28:34;;;;;;;4.25;2.10;;;24.50;96.70;;;;;;5066056;28;20123;-74
2023/07/30 05:31:03;;;;;;;6.07;2.40;;;24.60;96.70;;;;;;5057170;28;20452;-73
2023/07/30 05:33:31;;;;;;;3.22;2.22;;;24.70;96.70;;;;;;5067192;28;20044;-74
2023/07/30 05:36:00;;;;;;;3.67;2.17;;;24.70;96.70;;;;;;5066170;28;20068;-74
2023/07/30 05:38:30;;;;;;;3.92;2.20;;;24.70;96.70;;;;;;5063142;28;20390;-74
2023/07/30 05:40:58;;;;;;;4.20;2.22;;;24.70;96.70;;;;;;5066619;28;20033;-73
2023/07/30 05:43:26;;;;;;;4.45;2.50;;;24.70;96.70;;;;;;5047935;28;20044;-74
2023/07/30 05:45:55;;;;;;;3.92;2.10;;;24.70;96.70;;;;;;5067373;28;20102;-74
2023/07/30 05:48:23;;;;;;;4.90;2.25;;;24.60;96.70;;;;;;5065459;28;20052;-74
2023/07/30 05:50:52;;;;;;;7.20;2.45;;;24.70;96.70;;;;;;5064757;28;20053;-74
2023/07/30 05:53:20;;;;;;;4.75;2.30;;;24.70;96.70;;;;;;5066717;28;20442;-74
2023/07/30 05:55:50;;;;;;;4.88;2.05;;;24.70;96.70;;;;;;5066935;28;20111;-74
2023/07/30 05:58:19;;;;;;;5.53;2.90;;;24.70;96.70;;;;;;5065146;28;20056;-74
2023/07/30 06:00:47;;;;;;;6.18;2.60;;;24.80;96.70;;;;;;5064471;28;20048;-74
2023/07/30 06:03:16;;;;;;;4.20;2.78;;;24.90;96.70;;;;;;5066786;28;20177;-74
2023/07/30 06:05:44;;;;;;;5.82;2.58;;;24.90;96.70;;;;;;5067056;28;20101;-75
2023/07/30 06:08:13;;;;;;;3.63;2.50;;;24.90;96.70;;;;;;5064613;28;20037;-74
2023/07/30 06:10:41;;;;;;;6.47;2.92;;;25.00;96.70;;;;;;5058404;28;20080;-74
2023/07/30 06:13:11;;;;;;;4.43;2.40;;;25.00;96.70;;;;;;5066422;28;20169;-74
2023/07/30 06:15:39;;;;;;;4.63;2.25;;;25.00;96.70;;;;;;5065285;28;20482;-74
2023/07/30 06:18:08;;;;;;;2.88;2.00;;;25.00;96.70;;;;;;5064807;28;20047;-74
2023/07/30 06:20:36;;;;;;;4.38;2.47;;;25.10;96.70;;;;;;5063759;28;20044;-74
2023/07/30 06:23:05;;;;;;;5.28;2.53;;;25.10;96.70;;;;;;5047855;28;20041;-74
2023/07/30 06:25:33;;;;;;;4.18;2.20;;;25.10;96.70;;;;;;5064916;28;20067;-74
2023/07/30 06:28:03;;;;;;;4.50;2.53;;;25.20;96.70;;;;;;5064577;28;20040;-75
2023/07/30 06:30:34;;;;;;;4.72;2.47;;;25.40;96.70;;;;;;5081123;28;20406;-74
2023/07/30 06:33:02;;;;;;;6.47;2.65;;;25.40;96.70;;;;;;5066334;28;20274;-74
2023/07/30 06:35:30;;;;;;;4.93;2.53;;;25.50;96.70;;;;;;5065602;28;20454;-74
2023/07/30 06:37:59;;;;;;;4.88;2.60;;;25.50;96.70;;;;;;5065143;28;20044;-75
2023/07/30 06:40:27;;;;;;;5.97;2.58;;;25.50;96.70;;;;;;5064231;28;20048;-74
2023/07/30 06:42:55;;;;;;;5.00;2.30;;;25.50;96.70;;;;;;5065335;28;20059;-74
2023/07/30 06:45:24;;;;;;;3.83;1.88;;;25.40;96.70;;;;;;5064005;28;20127;-74
2023/07/30 06:47:54;;;;;;;4.82;2.53;;;25.50;96.70;;;;;;5066773;28;20041;-75
2023/07/30 06:50:25;;;;;;;5.60;2.40;;;25.60;96.70;;;;;;5064839;28;20061;-74
2023/07/30 06:52:54;;;;;;;3.92;2.22;;;25.60;96.70;;;;;;5064426;28;20045;-74
2023/07/30 06:55:22;;;;;;;3.47;2.20;;;25.80;96.70;;;;;;5065888;28;20388;-75
2023/07/30 06:57:50;;;;;;;2.88;2.03;;;25.90;96.70;;;;;;5065076;28;20512;-74
2023/07/30 07:00:21;;;;;;;4.03;1.95;;;26.00;96.70;;;;;;5063556;28;20423;-74
2023/07/30 07:02:50;;;;;;;2.78;2.30;;;26.00;96.70;;;;;;5064022;28;20582;-74
2023/07/30 07:05:20;;;;;;;5.18;2.47;;;26.00;96.70;;;;;;5064154;28;20139;-74
2023/07/30 07:07:49;;;;;;;3.65;2.55;;;25.90;96.70;;;;;;5064261;28;20072;-74
2023/07/30 07:10:17;;;;;;;5.10;2.53;;;25.90;96.70;;;;;;5065466;28;20648;-74
2023/07/30 07:12:46;;;;;;;4.65;2.38;;;26.00;96.70;;;;;;5063413;28;20504;-75
2023/07/30 07:15:14;;;;;;;7.30;2.92;;;26.10;96.70;;;;;;5065062;28;20040;-74
2023/07/30 07:17:42;;;;;;;3.95;2.42;;;26.20;96.70;;;;;;5066264;28;20074;-74
2023/07/30 07:20:11;;;;;;;5.07;2.20;;;26.20;96.70;;;;;;5047122;28;20457;-75
2023/07/30 07:22:41;;;;;;;4.53;2.13;;;26.20;96.70;;;;;;5063965;28;20072;-74
2023/07/30 07:25:10;;;;;;;6.97;2.47;;;26.30;96.70;;;;;;5063795;28;20155;-74
2023/07/30 07:27:38;;;;;;;5.78;2.25;;;26.40;96.70;;;;;;5064247;28;20053;-74
2023/07/30 07:30:08;;;;;;;3.35;1.92;;;26.40;96.70;;;;;;5079545;28;20151;-75
2023/07/30 07:32:37;;;;;;;4.30;1.90;;;26.40;96.70;;;;;;5064277;28;20063;-74
2023/07/30 07:35:07;;;;;;;5.18;1.92;;;26.50;96.70;;;;;;5063352;28;20398;-74
2023/07/30 07:37:36;;;;;;;4.53;1.92;;;26.50;96.70;;;;;;5063282;28;20048;-74
2023/07/30 07:40:09;;;;;;;4.95;2.17;;;26.60;96.70;;;;;;5064031;28;20036;-73
2023/07/30 07:42:39;;;;;;;4.60;1.85;;;26.60;96.70;;;;;;5059708;28;20148;-74
2023/07/30 07:45:08;;;;;;;3.05;1.80;;;26.60;96.70;;;;;;5046069;28;20094;-74
2023/07/30 07:47:36;;;;;;;3.78;2.08;;;26.60;96.70;;;;;;5063711;28;20044;-74
2023/07/30 07:50:06;;;;;;;3.90;2.33;;;26.70;96.70;;;;;;5042755;28;20052;-73
2023/07/30 07:52:34;;;;;;;5.78;2.13;;;26.80;96.70;;;;;;5078432;28;20506;-74
2023/07/30 07:55:06;;;;;;;3.10;1.40;;;26.90;96.70;;;;;;5054805;28;20094;-73
2023/07/30 07:57:34;;;;;;;3.10;1.50;;;27.00;96.70;;;;;;5064525;28;20076;-74
2023/07/30 08:00:06;;;;;;;3.53;1.55;;;27.10;96.70;;;;;;5061797;28;20036;-74
2023/07/30 08:02:38;;;;;;;4.50;1.50;;;27.10;96.70;;;;;;5060801;28;20049;-75
2023/07/30 08:05:07;;;;;;;3.15;1.38;;;27.00;96.70;;;;;;5062699;28;20131;-75
2023/07/30 08:07:36;;;;;;;2.80;1.42;;;26.90;96.70;;;;;;5063088;28;20064;-75
2023/07/30 08:10:07;;;;;;;3.45;1.42;;;26.90;96.70;;;;;;5064214;28;20051;-75
2023/07/30 08:12:35;;;;;;;2.58;1.25;;;26.90;96.70;;;;;;5063549;28;20040;-74
2023/07/30 08:15:04;;;;;;;2.60;1.52;;;27.00;96.70;;;;;;5062153;28;20401;-76
2023/07/30 08:17:32;;;;;;;2.30;1.35;;;27.00;96.70;;;;;;5062937;28;20191;-76
2023/07/30 08:20:00;;;;;;;3.95;1.65;;;27.20;96.70;;;;;;5055358;28;20040;-74
2023/07/30 08:22:28;;;;;;;3.88;1.70;;;27.40;96.70;;;;;;5063570;28;20032;-74
2023/07/30 08:24:57;;;;;;;3.55;1.60;;;27.60;96.70;;;;;;5063854;28;20507;-74
2023/07/30 08:27:26;;;;;;;4.35;1.50;;;27.70;96.70;;;;;;5062667;28;20059;-74
2023/07/30 08:29:54;;;;;;;1.73;1.17;;;27.80;96.70;;;;;;5058367;28;20067;-75
2023/07/30 08:32:22;;;;;;;2.30;1.50;;;27.80;96.70;;;;;;5062098;28;20555;-75
2023/07/30 08:34:51;;;;;;;3.05;1.40;;;27.90;96.70;;;;;;5063560;28;20049;-75
2023/07/30 08:37:19;;;;;;;4.70;1.35;;;28.00;96.70;;;;;;5077993;28;20040;-73
2023/07/30 08:39:47;;;;;;;1.58;1.30;;;28.10;96.70;;;;;;5044831;28;20080;-72
2023/07/30 08:42:17;;;;;;;2.58;1.70;;;28.20;96.70;;;;;;5062901;28;20037;-75
2023/07/30 08:44:46;;;;;;;3.28;1.67;;;28.40;96.70;;;;;;5060325;28;20414;-74
2023/07/30 08:47:16;;;;;;;2.25;1.60;;;28.30;96.70;;;;;;5078321;28;20079;-75
2023/07/30 08:49:44;;;;;;;3.28;1.58;;;28.30;96.70;;;;;;5062702;28;20435;-75
2023/07/30 08:52:18;;;;;;;2.42;1.58;;;28.30;96.70;;;;;;5044472;28;20059;-76
2023/07/30 08:54:49;;;;;;;3.25;1.92;;;28.30;96.70;;;;;;5054686;28;20045;-75
2023/07/30 08:57:21;;;;;;;4.10;1.70;;;28.30;96.70;;;;;;5062127;28;20053;-76
2023/07/30 08:59:54;;;;;;;2.80;1.90;;;28.40;96.70;;;;;;5063059;28;20083;-74
2023/07/30 09:02:33;;;;;;;6.55;1.85;;;28.40;96.70;;;;;;5060404;28;20075;-75
2023/07/30 09:05:02;;;;;;;4.05;1.60;;;28.50;96.70;;;;;;5061409;28;20119;-76
2023/07/30 09:07:30;;;;;;;4.70;1.77;;;28.70;96.70;;;;;;5044136;28;20417;-76
2023/07/30 09:09:59;;;;;;;3.97;2.25;;;28.80;96.70;;;;;;5061563;28;20045;-77
2023/07/30 09:12:29;;;;;;;2.45;1.55;;;28.90;96.70;;;;;;5063042;28;20806;-76
2023/07/30 09:15:00;;;;;;;6.85;3.67;;;29.10;96.70;;;;;;5063426;28;20494;-76
2023/07/30 09:17:28;;;;;;;4.97;3.17;;;29.20;96.70;;;;;;5062564;28;20572;-75
2023/07/30 09:19:59;;;;;;;3.25;2.00;;;29.10;96.70;;;;;;5060593;28;20140;-75
2023/07/30 09:22:28;;;;;;;4.32;2.00;;;29.00;96.70;;;;;;5062147;28;20087;-77
2023/07/30 09:24:58;;;;;;;3.00;1.75;;;29.00;96.70;;;;;;5061119;28;20501;-77
2023/07/30 09:27:26;;;;;;;5.68;3.55;;;29.10;96.70;;;;;;5058858;28;20041;-74
2023/07/30 09:29:55;;;;;;;9.43;6.68;;;29.10;96.70;;;;;;5062647;28;20037;-76
2023/07/30 09:32:28;;;;;;;4.00;2.03;;;28.90;96.70;;;;;;5047313;28;20160;-76
2023/07/30 09:35:06;;;;;;;3.72;1.77;;;28.90;96.70;;;;;;5057309;28;21008;-75
2023/07/30 09:37:38;;;;;;;4.20;2.42;;;28.80;96.70;;;;;;5061953;28;20119;-83
2023/07/30 09:40:08;;;;;;;4.18;2.22;;;28.80;96.70;;;;;;5047568;28;20045;-81
2023/07/30 09:42:39;;;;;;;2.80;1.90;;;28.90;96.70;;;;;;5063511;28;20062;-80
2023/07/30 09:45:16;;;;;;;3.70;1.73;;;28.90;96.70;;;;;;5062478;28;20040;-80
2023/07/30 09:47:48;;;;;;;4.65;2.03;;;28.80;96.70;;;;;;5046932;28;20083;-81
2023/07/30 09:50:17;;;;;;;3.35;2.05;;;28.80;96.70;;;;;;5062206;28;20044;-82
2023/07/30 09:52:46;;;;;;;2.78;1.83;;;28.80;96.70;;;;;;5063963;28;20045;-79
2023/07/30 09:55:18;;;;;;;2.90;2.22;;;28.80;96.70;;;;;;5059942;28;20517;-85
2023/07/30 09:57:47;;;;;;;3.78;2.30;;;28.90;96.70;;;;;;5068758;28;20045;-82
2023/07/30 10:00:15;;;;;;;3.65;1.70;;;29.10;96.70;;;;;;5066886;28;20064;-84
2023/07/30 10:02:48;;;;;;;2.53;1.73;;;29.20;96.70;;;;;;5068461;28;20127;-82
2023/07/30 10:05:18;;;;;;;4.35;1.98;;;29.10;96.70;;;;;;5067059;28;20039;-82
2023/07/30 10:07:51;;;;;;;3.38;1.90;;;29.30;96.70;;;;;;5067154;28;20049;-86
2023/07/30 10:10:21;;;;;;;2.65;1.98;;;29.40;96.70;;;;;;5083183;28;20502;-81
2023/07/30 10:12:50;;;;;;;3.50;2.28;;;29.30;96.70;;;;;;5067475;28;20068;-81
2023/07/30 10:15:23;;;;;;;4.93;2.00;;;29.30;96.70;;;;;;5068112;28;20498;-83
2023/07/30 10:17:57;;;;;;;5.00;2.05;;;29.30;96.70;;;;;;5066942;28;20052;-83
2023/07/30 10:20:31;;;;;;;4.88;2.10;;;29.20;96.70;;;;;;5067984;28;20079;-84
2023/07/30 10:23:00;;;;;;;3.60;2.00;;;29.10;96.70;;;;;;5066539;28;20090;-83
2023/07/30 10:25:30;;;;;;;2.45;1.70;;;29.00;96.70;;;;;;5067321;28;20046;-83
2023/07/30 10:28:01;;;;;;;3.60;1.90;;;29.00;96.70;;;;;;5066693;28;20054;-82
2023/07/30 10:30:33;;;;;;;4.10;2.13;;;29.00;96.70;;;;;;5067761;28;20078;-83
2023/07/30 10:33:04;;;;;;;4.80;1.95;;;29.40;96.70;;;;;;5082927;28;20055;-82
2023/07/30 10:35:38;;;;;;;5.10;2.10;;;29.70;96.70;;;;;;5048754;28;20157;-79
2023/07/30 10:38:27;;;;;;;3.75;2.00;;;29.70;96.70;;;;;;5065407;28;20066;-83
2023/07/30 10:41:04;;;;;;;4.63;1.80;;;29.80;96.70;;;;;;5066640;28;20055;-82
2023/07/30 10:43:35;;;;;;;5.97;2.63;;;29.80;96.70;;;;;;5065583;28;20139;-80
2023/07/30 10:46:04;;;;;;;2.60;1.63;;;29.90;96.70;;;;;;5063305;28;20048;-78
2023/07/30 10:48:36;;;;;;;4.45;2.10;;;29.80;96.70;;;;;;5066105;28;20041;-82
2023/07/30 10:51:06;;;;;;;4.50;1.98;;;29.70;96.70;;;;;;5065889;28;20052;-79
2023/07/30 10:53:39;;;;;;;4.00;1.67;;;29.40;96.70;;;;;;5064582;28;20041;-82
2023/07/30 10:56:09;;;;;;;4.30;2.05;;;29.30;96.70;;;;;;5065498;28;20045;-78
2023/07/30 10:58:37;;;;;;;3.55;1.83;;;29.60;96.70;;;;;;5065042;28;20041;-83
2023/07/30 11:01:07;;;;;;;3.08;1.80;;;29.90;96.70;;;;;;5064591;28;20052;-84
2023/07/30 11:03:40;;;;;;;4.25;1.85;;;29.90;96.70;;;;;;5065420;28;20045;-82
2023/07/30 11:06:08;;;;;;;4.45;1.90;;;29.60;96.70;;;;;;5060759;28;20044;-79
2023/07/30 11:08:37;;;;;;;5.75;1.92;;;29.80;96.70;;;;;;5064261;28;20040;-82
2023/07/30 11:11:07;;;;;;;5.35;2.10;;;30.00;96.70;;;;;;5065614;28;20051;-82
2023/07/30 11:13:36;;;;;;;4.53;1.90;;;30.10;96.70;;;;;;5063321;28;20575;-80
2023/07/30 11:16:06;;;;;;;8.82;3.35;;;30.00;96.70;;;;;;5064969;28;20064;-80
2023/07/30 11:18:37;;;;;;;4.65;1.50;;;30.20;96.70;;;;;;5064838;28;20056;-80
2023/07/30 11:21:06;;;;;;;4.07;1.88;;;30.40;96.70;;;;;;5048049;28;20054;-79
2023/07/30 11:23:35;;;;;;;3.40;1.50;;;30.40;96.70;;;;;;5063074;28;20056;-79
2023/07/30 11:26:06;;;;;;;4.32;1.60;;;30.50;96.70;;;;;;5064759;28;20572;-80
2023/07/30 11:28:36;;;;;;;3.05;1.77;;;30.60;96.70;;;;;;5045696;28;20056;-80
2023/07/30 11:31:07;;;;;;;2.75;1.50;;;30.70;96.70;;;;;;5080267;28;20076;-79
2023/07/30 11:33:39;;;;;;;3.95;1.48;;;30.90;96.70;;;;;;5063360;28;20080;-81
2023/07/30 11:36:11;;;;;;;3.67;1.90;;;30.80;96.70;;;;;;5065180;28;20048;-82
2023/07/30 11:38:40;;;;;;;3.90;1.65;;;30.60;96.70;;;;;;5047909;28;20971;-82
2023/07/30 11:41:10;;;;;;;4.15;2.00;;;30.30;96.70;;;;;;5065018;28;20050;-81
2023/07/30 11:43:39;;;;;;;3.50;1.85;;;30.10;96.70;;;;;;5049613;28;20040;-81
2023/07/30 11:46:10;;;;;;;4.38;1.60;;;30.00;96.70;;;;;;5062198;28;20059;-80
2023/07/30 11:48:41;;;;;;;4.00;1.73;;;29.90;96.70;;;;;;5064075;28;20087;-82
2023/07/30 11:51:20;;;;;;;4.47;1.75;;;30.40;96.70;;;;;;5062917;28;20125;-81
2023/07/30 11:53:52;;;;;;;3.97;1.73;;;30.60;96.70;;;;;;5064481;28;20533;-81
2023/07/30 11:56:22;;;;;;;4.43;1.40;;;30.80;96.70;;;;;;5063912;28;20148;-85
2023/07/30 11:58:54;;;;;;;4.00;1.88;;;30.90;96.70;;;;;;5064672;28;20114;-83
2023/07/30 12:01:24;;;;;;;3.65;1.50;;;30.90;96.70;;;;;;5062435;28;20505;-79
2023/07/30 12:03:56;;;;;;;3.42;1.70;;;31.00;96.70;;;;;;5062808;28;20044;-80
2023/07/30 12:06:37;;;;;;;3.35;1.55;;;31.10;96.70;;;;;;5061860;28;20037;-79
2023/07/30 12:09:11;;;;;;;3.78;1.38;;;31.20;96.70;;;;;;5060334;28;20047;-81
2023/07/30 12:11:48;;;;;;;1.98;1.38;;;31.20;96.70;;;;;;5060342;28;20044;-78
2023/07/30 12:14:17;;;;;;;5.95;2.42;;;31.20;96.70;;;;;;5063031;28;20091;-81
2023/07/30 12:16:46;;;;;;;5.03;1.67;;;31.10;96.70;;;;;;5060953;28;20705;-80
2023/07/30 12:19:16;;;;;;;2.83;1.88;;;31.20;96.70;;;;;;5061378;28;20163;-80
2023/07/30 12:21:44;;;;;;;7.03;1.90;;;31.10;96.70;;;;;;5062995;28;20437;-78
2023/07/30 12:24:13;;;;;;;3.42;1.70;;;31.30;96.70;;;;;;5055240;28;20055;-79
2023/07/30 12:26:42;;;;;;;3.55;1.83;;;31.50;96.70;;;;;;5062642;28;20048;-78
2023/07/30 12:29:10;;;;;;;3.13;1.88;;;31.20;96.70;;;;;;5045006;28;20506;-80
2023/07/30 12:31:38;;;;;;;3.50;1.75;;;31.20;96.70;;;;;;5063608;28;20051;-79
2023/07/30 12:34:08;;;;;;;4.95;1.73;;;31.00;96.70;;;;;;5063145;28;20068;-79
2023/07/30 12:36:38;;;;;;;3.40;1.80;;;31.20;96.70;;;;;;5055419;28;20044;-81
2023/07/30 12:39:07;;;;;;;2.95;1.60;;;31.40;96.70;;;;;;5062192;28;20128;-79
2023/07/30 12:41:36;;;;;;;3.45;1.63;;;31.10;96.70;;;;;;5063361;28;20045;-83
2023/07/30 12:44:05;;;;;;;5.82;1.80;;;31.00;96.70;;;;;;5063544;28;20033;-85
2023/07/30 12:46:33;;;;;;;5.03;1.80;;;31.20;96.70;;;;;;5064561;28;20041;-82
2023/07/30 12:49:05;;;;;;;4.70;2.00;;;31.30;96.70;;;;;;5063312;28;20561;-79
2023/07/30 12:51:34;;;;;;;5.80;2.08;;;31.30;96.70;;;;;;5045518;28;20151;-78
2023/07/30 12:54:03;;;;;;;3.15;1.65;;;31.40;96.70;;;;;;5061830;28;20040;-78
2023/07/30 12:56:32;;;;;;;5.32;1.80;;;31.40;96.70;;;;;;5062408;28;20048;-78
2023/07/30 12:59:04;;;;;;;3.85;2.15;;;31.50;96.70;;;;;;5061587;28;20098;-78
2023/07/30 13:01:32;;;;;;;5.40;2.10;;;31.50;96.70;;;;;;5062049;28;20128;-77